Time;durP1;ratioP1;P1;durP2;ratioP2;P2;SDS_P1;SDS_P2;PMS_P1;PMS_P2;Temp;Humidity;BMP_temperature;BMP_pressure;BME280_temperature;BME280_humidity;BME280_pressure;Samples;Min_cycle;Max_cycle;Signal;HPM_P1;HPM_P2
2021/04/08 00:03:19;;;;;;;5.10;4.15;;;;;;;;;;4956068;29;20830;-78
2021/04/08 00:05:45;;;;;;;4.15;3.20;;;;;;;;;;4956215;29;20168;-79
2021/04/08 00:08:11;;;;;;;4.80;3.70;;;;;;;;;;4956139;29;20167;-78
2021/04/08 00:10:37;;;;;;;6.47;4.88;;;;;;;;;;4956025;29;20482;-78
2021/04/08 00:13:03;;;;;;;6.20;3.75;;;;;;;;;;4956179;29;20206;-79
2021/04/08 00:18:33;;;;;;;4.57;4.18;;;;;;;;;;4963418;29;20182;-78
2021/04/08 00:20:59;;;;;;;10.33;3.43;;;;;;;;;;4964986;29;20207;-76
2021/04/08 00:23:25;;;;;;;5.43;4.25;;;;;;;;;;4956875;29;20459;-79
2021/04/08 00:25:51;;;;;;;8.17;4.33;;;;;;;;;;4956023;29;20661;-77
2021/04/08 00:28:17;;;;;;;7.30;4.43;;;;;;;;;;4938566;29;20470;-79
2021/04/08 00:30:43;;;;;;;5.40;4.05;;;;;;;;;;4955846;29;20219;-78
2021/04/08 00:33:13;;;;;;;4.63;4.10;;;;;;;;;;4955574;29;20176;-78
2021/04/08 00:35:40;;;;;;;7.15;4.45;;;;;;;;;;4955554;29;20423;-79
2021/04/08 00:38:06;;;;;;;8.27;4.63;;;;;;;;;;4956323;29;20564;-79
2021/04/08 00:40:32;;;;;;;6.15;4.10;;;;;;;;;;4956691;29;20610;-78
2021/04/08 00:42:58;;;;;;;5.63;4.10;;;;;;;;;;4956538;29;20182;-79
2021/04/08 00:48:27;;;;;;;5.05;4.53;;;;;;;;;;4956032;29;20422;-79
2021/04/08 00:50:53;;;;;;;4.60;4.10;;;;;;;;;;4956073;29;20670;-79
2021/04/08 00:53:21;;;;;;;5.20;4.13;;;;;;;;;;4955918;28;20420;-79
2021/04/08 00:55:49;;;;;;;6.25;4.38;;;;;;;;;;4956033;29;20478;-79
2021/04/08 00:58:16;;;;;;;6.20;4.43;;;;;;;;;;4956411;29;20164;-79
2021/04/08 01:03:45;;;;;;;11.05;4.57;;;;;;;;;;4956481;29;20178;-80
2021/04/08 01:06:11;;;;;;;7.28;4.78;;;;;;;;;;4955947;29;20172;-79
2021/04/08 01:08:37;;;;;;;5.28;4.28;;;;;;;;;;4956132;29;20179;-78
2021/04/08 01:11:04;;;;;;;6.78;4.70;;;;;;;;;;4955659;29;20278;-79
2021/04/08 01:13:31;;;;;;;5.43;4.93;;;;;;;;;;4956055;29;20171;-79
2021/04/08 01:16:01;;;;;;;6.35;4.22;;;;;;;;;;4955799;29;20278;-79
2021/04/08 01:18:43;;;;;;;5.07;4.40;;;;;;;;;;4955845;29;20256;-79
2021/04/08 01:21:18;;;;;;;5.03;4.40;;;;;;;;;;4955653;29;20248;-78
2021/04/08 01:23:50;;;;;;;5.25;4.75;;;;;;;;;;4955815;29;20174;-79
2021/04/08 01:26:29;;;;;;;13.45;5.55;;;;;;;;;;4955731;29;20176;-78
2021/04/08 01:29:03;;;;;;;5.40;4.50;;;;;;;;;;4955923;29;20307;-77
2021/04/08 01:31:29;;;;;;;6.32;4.93;;;;;;;;;;4955574;29;20215;-79
2021/04/08 01:33:58;;;;;;;5.72;5.22;;;;;;;;;;4955942;29;20172;-78
2021/04/08 01:36:30;;;;;;;6.28;5.05;;;;;;;;;;4963695;29;20179;-78
2021/04/08 01:39:07;;;;;;;8.23;5.00;;;;;;;;;;4968149;29;20176;-77
2021/04/08 01:41:37;;;;;;;7.45;4.03;;;;;;;;;;4957325;29;20181;-77
2021/04/08 01:44:04;;;;;;;12.60;5.15;;;;;;;;;;4955838;29;20214;-78
2021/04/08 01:46:31;;;;;;;5.03;4.53;;;;;;;;;;4955573;29;20168;-79
2021/04/08 01:48:59;;;;;;;6.30;4.53;;;;;;;;;;4955674;29;20201;-77
2021/04/08 01:51:26;;;;;;;8.75;4.72;;;;;;;;;;4955465;29;20279;-77
2021/04/08 01:53:55;;;;;;;5.85;5.30;;;;;;;;;;4955303;28;20172;-79
2021/04/08 01:56:22;;;;;;;6.68;5.10;;;;;;;;;;4955761;29;20187;-78
2021/04/08 01:58:49;;;;;;;6.18;4.80;;;;;;;;;;4953490;29;20184;-79
2021/04/08 02:01:18;;;;;;;6.32;4.35;;;;;;;;;;4954358;29;20175;-75
2021/04/08 02:03:45;;;;;;;4.05;3.40;;;;;;;;;;4954014;29;20623;-75
2021/04/08 02:06:12;;;;;;;4.50;4.13;;;;;;;;;;4953368;28;20576;-76
2021/04/08 02:08:40;;;;;;;4.43;3.60;;;;;;;;;;4955355;29;20168;-78
2021/04/08 02:11:08;;;;;;;3.42;3.10;;;;;;;;;;4955131;29;20211;-79
2021/04/08 02:13:35;;;;;;;3.92;3.63;;;;;;;;;;4955370;29;20210;-79
2021/04/08 02:19:07;;;;;;;3.67;3.33;;;;;;;;;;4955174;29;20665;-77
2021/04/08 02:21:33;;;;;;;6.70;3.50;;;;;;;;;;4954878;29;20180;-78
2021/04/08 02:24:00;;;;;;;3.25;2.95;;;;;;;;;;4955163;29;20176;-76
2021/04/08 02:26:26;;;;;;;4.15;2.90;;;;;;;;;;4954996;29;20172;-77
2021/04/08 02:28:53;;;;;;;4.90;3.05;;;;;;;;;;4955232;29;20203;-76
2021/04/08 02:31:19;;;;;;;3.58;3.33;;;;;;;;;;4955098;29;20548;-77
2021/04/08 02:33:45;;;;;;;6.32;2.85;;;;;;;;;;4954968;29;20180;-78
2021/04/08 02:36:12;;;;;;;3.30;3.00;;;;;;;;;;4954615;29;20235;-78
2021/04/08 02:38:38;;;;;;;4.10;2.92;;;;;;;;;;4954798;29;20408;-78
2021/04/08 02:41:09;;;;;;;5.07;3.00;;;;;;;;;;4954580;29;20194;-77
2021/04/08 02:43:36;;;;;;;3.85;2.40;;;;;;;;;;4954773;29;20172;-78
2021/04/08 02:49:05;;;;;;;2.88;2.67;;;;;;;;;;4954606;29;20205;-78
2021/04/08 02:51:51;;;;;;;4.43;2.80;;;;;;;;;;4954609;29;20218;-76
2021/04/08 02:54:39;;;;;;;6.63;3.50;;;;;;;;;;4954152;29;20318;-74
2021/04/08 02:57:06;;;;;;;3.83;2.80;;;;;;;;;;4954450;29;20176;-76
2021/04/08 02:59:40;;;;;;;4.80;2.97;;;;;;;;;;4954664;29;20172;-78
2021/04/08 03:02:10;;;;;;;4.05;2.20;;;;;;;;;;4954552;29;20178;-77
2021/04/08 03:04:38;;;;;;;3.65;2.50;;;;;;;;;;4954436;29;20224;-77
2021/04/08 03:07:04;;;;;;;7.50;3.40;;;;;;;;;;4954487;29;20176;-78
2021/04/08 03:09:35;;;;;;;4.90;2.88;;;;;;;;;;4954551;29;20173;-78
2021/04/08 03:12:05;;;;;;;5.20;2.78;;;;;;;;;;4954408;29;20224;-76
2021/04/08 03:14:39;;;;;;;3.78;2.75;;;;;;;;;;4960205;29;20171;-76
2021/04/08 03:17:06;;;;;;;3.90;3.30;;;;;;;;;;4969131;28;20187;-77
2021/04/08 03:19:32;;;;;;;4.68;3.10;;;;;;;;;;4964023;29;20164;-77
2021/04/08 03:21:59;;;;;;;4.50;2.70;;;;;;;;;;4958551;29;20176;-78
2021/04/08 03:24:26;;;;;;;11.50;3.25;;;;;;;;;;4957948;29;20168;-76
2021/04/08 03:26:52;;;;;;;3.83;2.80;;;;;;;;;;4958210;29;20259;-77
2021/04/08 03:29:18;;;;;;;6.97;3.38;;;;;;;;;;4957755;29;20168;-79
2021/04/08 03:31:45;;;;;;;3.45;3.10;;;;;;;;;;4957850;29;20203;-76
2021/04/08 03:34:11;;;;;;;6.88;3.38;;;;;;;;;;4957543;29;20176;-78
2021/04/08 03:36:37;;;;;;;6.80;2.50;;;;;;;;;;4941058;29;20176;-78
2021/04/08 03:39:06;;;;;;;4.05;2.83;;;;;;;;;;4956844;29;20164;-79
2021/04/08 03:41:36;;;;;;;2.80;2.47;;;;;;;;;;4957700;29;20172;-78
2021/04/08 03:44:02;;;;;;;2.65;2.30;;;;;;;;;;4957493;29;20176;-78
2021/04/08 03:49:32;;;;;;;3.78;2.30;;;;;;;;;;4957692;29;20235;-78
2021/04/08 03:51:59;;;;;;;3.40;2.63;;;;;;;;;;4940388;29;20211;-78
2021/04/08 03:54:25;;;;;;;2.40;2.20;;;;;;;;;;4957211;29;20331;-79
2021/04/08 03:56:52;;;;;;;3.58;2.33;;;;;;;;;;4957446;29;20195;-79
2021/04/08 03:59:19;;;;;;;3.65;2.10;;;;;;;;;;4957173;29;20176;-80
2021/04/08 04:01:45;;;;;;;5.03;2.30;;;;;;;;;;4939875;29;20247;-79
2021/04/08 04:04:12;;;;;;;3.63;1.92;;;;;;;;;;4957058;29;20179;-79
2021/04/08 04:06:41;;;;;;;2.95;2.22;;;;;;;;;;4957381;29;20176;-79
2021/04/08 04:09:11;;;;;;;3.00;2.80;;;;;;;;;;4957095;29;20171;-79
2021/04/08 04:11:42;;;;;;;2.60;2.40;;;;;;;;;;4957995;29;20215;-78
2021/04/08 04:14:10;;;;;;;3.13;2.38;;;;;;;;;;4940061;29;20176;-79
2021/04/08 04:19:39;;;;;;;4.70;2.30;;;;;;;;;;4956975;29;20228;-78
2021/04/08 04:22:05;;;;;;;6.20;2.30;;;;;;;;;;4957262;29;20619;-78
2021/04/08 04:24:31;;;;;;;2.67;2.47;;;;;;;;;;4956598;29;20427;-79
2021/04/08 04:26:57;;;;;;;4.00;2.80;;;;;;;;;;4939514;29;20433;-79
2021/04/08 04:29:23;;;;;;;8.37;2.93;;;;;;;;;;4955177;28;20957;-79
2021/04/08 04:34:52;;;;;;;4.60;2.08;;;;;;;;;;4956433;29;20418;-77
2021/04/08 04:37:18;;;;;;;5.28;2.92;;;;;;;;;;4956722;29;20178;-79
2021/04/08 04:39:44;;;;;;;2.43;2.23;;;;;;;;;;4956566;29;20262;-78
2021/04/08 04:42:10;;;;;;;3.60;2.72;;;;;;;;;;4956592;29;20442;-78
2021/04/08 04:50:28;;;;;;;5.78;2.40;;;;;;;;;;4956541;29;20222;-78
2021/04/08 04:52:54;;;;;;;3.65;2.60;;;;;;;;;;4956954;29;20165;-77
2021/04/08 04:55:20;;;;;;;2.80;2.33;;;;;;;;;;4956468;29;20292;-77
2021/04/08 04:57:46;;;;;;;3.20;2.30;;;;;;;;;;4939183;29;20442;-78
2021/04/08 05:00:12;;;;;;;4.40;2.57;;;;;;;;;;4955629;29;20183;-76
2021/04/08 05:02:38;;;;;;;2.63;2.42;;;;;;;;;;4955023;29;20430;-76
2021/04/08 05:05:04;;;;;;;7.70;2.70;;;;;;;;;;4954762;29;20176;-76
2021/04/08 05:07:30;;;;;;;7.47;2.08;;;;;;;;;;4961867;29;20451;-76
2021/04/08 05:09:56;;;;;;;4.60;1.83;;;;;;;;;;4966747;29;20188;-77
2021/04/08 05:12:23;;;;;;;2.77;2.20;;;;;;;;;;4940838;29;20247;-78
2021/04/08 05:20:38;;;;;;;4.28;2.15;;;;;;;;;;4955708;29;20194;-79
2021/04/08 05:23:04;;;;;;;2.23;2.00;;;;;;;;;;4955242;29;20168;-77
2021/04/08 05:25:30;;;;;;;2.53;2.27;;;;;;;;;;4955414;29;20427;-76
2021/04/08 05:27:56;;;;;;;4.00;2.38;;;;;;;;;;4955525;29;20428;-79
2021/04/08 05:30:22;;;;;;;3.50;2.37;;;;;;;;;;4955292;29;20234;-78
2021/04/08 05:32:48;;;;;;;4.00;2.33;;;;;;;;;;4955512;29;20775;-78
2021/04/08 05:35:14;;;;;;;6.80;2.50;;;;;;;;;;4955162;29;20172;-78
2021/04/08 05:37:40;;;;;;;3.03;2.20;;;;;;;;;;4955079;29;20920;-78
2021/04/08 05:40:06;;;;;;;7.00;3.00;;;;;;;;;;4955022;28;20473;-77
2021/04/08 05:42:32;;;;;;;3.25;2.70;;;;;;;;;;4954935;29;20439;-76
2021/04/08 05:44:58;;;;;;;9.33;2.40;;;;;;;;;;4955023;29;20183;-77
2021/04/08 05:50:28;;;;;;;2.38;1.80;;;;;;;;;;4955113;29;20246;-80
2021/04/08 05:52:54;;;;;;;6.73;2.70;;;;;;;;;;4938098;29;20187;-77
2021/04/08 05:55:20;;;;;;;2.67;1.70;;;;;;;;;;4954678;29;20559;-76
2021/04/08 05:57:46;;;;;;;4.87;2.47;;;;;;;;;;4954886;29;20514;-79
2021/04/08 06:00:12;;;;;;;4.07;2.58;;;;;;;;;;4955042;29;20467;-77
2021/04/08 06:02:39;;;;;;;7.38;2.70;;;;;;;;;;4955062;29;20571;-79
2021/04/08 06:05:06;;;;;;;6.93;2.92;;;;;;;;;;4954950;29;20638;-79
2021/04/08 06:07:32;;;;;;;8.43;3.08;;;;;;;;;;4954936;29;20171;-80
2021/04/08 06:09:58;;;;;;;3.33;2.58;;;;;;;;;;4954874;29;20187;-77
2021/04/08 06:12:24;;;;;;;3.25;2.38;;;;;;;;;;4955094;29;20184;-78
2021/04/08 06:14:50;;;;;;;4.05;2.47;;;;;;;;;;4954801;29;20180;-76
2021/04/08 06:20:20;;;;;;;3.42;3.17;;;;;;;;;;4954785;29;20238;-76
2021/04/08 06:22:46;;;;;;;4.63;2.80;;;;;;;;;;4954524;29;20176;-79
2021/04/08 06:25:12;;;;;;;4.23;2.70;;;;;;;;;;4936869;29;20338;-79
2021/04/08 06:27:38;;;;;;;2.17;1.98;;;;;;;;;;4954268;29;20753;-79
2021/04/08 06:30:05;;;;;;;5.40;2.40;;;;;;;;;;4954131;29;20176;-79
2021/04/08 06:35:34;;;;;;;3.05;2.25;;;;;;;;;;4954766;29;20223;-78
2021/04/08 06:38:00;;;;;;;8.02;2.85;;;;;;;;;;4954835;29;20176;-78
2021/04/08 06:40:26;;;;;;;9.60;2.83;;;;;;;;;;4954732;29;20179;-79
2021/04/08 06:42:53;;;;;;;5.60;2.88;;;;;;;;;;4954592;29;20801;-79
2021/04/08 06:45:21;;;;;;;5.93;2.53;;;;;;;;;;4954229;29;20433;-80
2021/04/08 06:50:51;;;;;;;4.78;3.40;;;;;;;;;;4954781;28;20272;-78
2021/04/08 06:53:18;;;;;;;4.35;2.80;;;;;;;;;;4958495;29;20184;-80
2021/04/08 06:55:44;;;;;;;4.25;3.03;;;;;;;;;;4957382;29;20311;-78
2021/04/08 06:58:10;;;;;;;3.83;3.35;;;;;;;;;;4957538;29;20176;-77
2021/04/08 07:00:36;;;;;;;4.40;3.05;;;;;;;;;;4957595;29;20679;-78
2021/04/08 07:06:06;;;;;;;8.23;4.45;;;;;;;;;;4957218;29;20168;-78
2021/04/08 07:08:32;;;;;;;4.43;3.47;;;;;;;;;;4957167;29;20189;-77
2021/04/08 07:10:59;;;;;;;6.68;3.88;;;;;;;;;;4957007;29;20220;-80
2021/04/08 07:13:32;;;;;;;8.82;4.70;;;;;;;;;;4957262;29;20172;-78
2021/04/08 07:15:58;;;;;;;8.52;3.60;;;;;;;;;;4939949;29;20520;-77
2021/04/08 07:18:25;;;;;;;6.40;3.58;;;;;;;;;;4956458;29;20626;-78
2021/04/08 07:20:52;;;;;;;8.05;2.50;;;;;;;;;;4939998;29;20176;-81
2021/04/08 07:23:18;;;;;;;5.15;2.80;;;;;;;;;;4957272;29;20178;-76
2021/04/08 07:26:00;;;;;;;3.30;2.60;;;;;;;;;;4957129;29;20179;-78
2021/04/08 07:28:29;;;;;;;5.05;1.83;;;;;;;;;;4957264;29;20235;-80
2021/04/08 07:30:55;;;;;;;4.80;2.40;;;;;;;;;;4957040;29;20207;-80
2021/04/08 07:33:21;;;;;;;2.27;2.00;;;;;;;;;;4957471;29;20185;-78
2021/04/08 07:35:47;;;;;;;4.37;2.30;;;;;;;;;;4957129;29;20427;-77
2021/04/08 07:38:13;;;;;;;3.27;1.87;;;;;;;;;;4957292;29;20739;-78
2021/04/08 07:40:39;;;;;;;2.87;2.57;;;;;;;;;;4939553;29;20568;-76
2021/04/08 07:43:15;;;;;;;5.57;2.47;;;;;;;;;;4957069;29;20438;-77
2021/04/08 07:45:41;;;;;;;3.23;2.27;;;;;;;;;;4956211;29;20757;-77
2021/04/08 07:48:08;;;;;;;5.37;2.90;;;;;;;;;;4956443;29;20504;-78
2021/04/08 07:50:39;;;;;;;7.03;2.50;;;;;;;;;;4956685;29;20466;-79
2021/04/08 07:53:05;;;;;;;4.35;3.33;;;;;;;;;;4956893;29;20504;-75
2021/04/08 07:55:31;;;;;;;8.88;3.78;;;;;;;;;;4957146;28;20266;-76
2021/04/08 07:58:01;;;;;;;6.20;3.13;;;;;;;;;;4955325;29;20239;-76
2021/04/08 08:00:29;;;;;;;7.63;3.50;;;;;;;;;;4955475;29;20424;-77
2021/04/08 08:06:00;;;;;;;4.93;3.72;;;;;;;;;;4955462;29;20186;-75
2021/04/08 08:08:35;;;;;;;3.83;3.43;;;;;;;;;;4955583;29;20195;-76
2021/04/08 08:11:11;;;;;;;9.40;4.33;;;;;;;;;;4955194;29;20478;-77
2021/04/08 08:13:47;;;;;;;6.40;4.07;;;;;;;;;;4955266;29;20464;-77
2021/04/08 08:22:06;;;;;;;4.57;3.83;;;;;;;;;;4954898;29;20839;-76
2021/04/08 08:24:32;;;;;;;6.63;3.07;;;;;;;;;;4955092;29;20419;-76
2021/04/08 08:26:58;;;;;;;4.17;3.40;;;;;;;;;;4954946;29;20424;-79
2021/04/08 08:29:26;;;;;;;4.33;3.90;;;;;;;;;;4956212;29;20424;-76
2021/04/08 08:31:55;;;;;;;5.47;3.80;;;;;;;;;;4960701;29;20467;-78
2021/04/08 08:34:21;;;;;;;4.73;3.67;;;;;;;;;;4960513;29;20412;-78
2021/04/08 08:36:51;;;;;;;8.40;3.87;;;;;;;;;;4954914;29;20440;-76
2021/04/08 08:39:20;;;;;;;5.57;3.40;;;;;;;;;;4954532;29;20511;-76
2021/04/08 08:41:47;;;;;;;5.73;3.90;;;;;;;;;;4954461;29;20419;-76
2021/04/08 08:44:15;;;;;;;4.67;3.93;;;;;;;;;;4954568;29;20431;-77
2021/04/08 08:46:59;;;;;;;3.87;3.57;;;;;;;;;;4954773;29;20407;-77
2021/04/08 08:49:41;;;;;;;4.00;3.03;;;;;;;;;;4954811;29;20442;-78
2021/04/08 08:52:08;;;;;;;5.50;3.80;;;;;;;;;;4937037;29;20534;-77
2021/04/08 08:54:34;;;;;;;6.83;2.90;;;;;;;;;;4952276;29;20471;-77
2021/04/08 08:57:01;;;;;;;9.63;3.47;;;;;;;;;;4954697;29;20478;-78
2021/04/08 08:59:28;;;;;;;4.13;3.20;;;;;;;;;;4954476;29;20954;-81
2021/04/08 09:01:54;;;;;;;5.00;3.40;;;;;;;;;;4937493;29;20447;-80
2021/04/08 09:04:21;;;;;;;5.87;3.60;;;;;;;;;;4954257;29;20431;-78
2021/04/08 09:06:47;;;;;;;4.40;3.40;;;;;;;;;;4954621;29;20439;-78
2021/04/08 09:09:16;;;;;;;4.00;3.53;;;;;;;;;;4954640;29;20595;-78
2021/04/08 09:11:42;;;;;;;3.27;2.97;;;;;;;;;;4952586;29;20969;-78
2021/04/08 09:14:11;;;;;;;3.17;2.87;;;;;;;;;;4953540;28;20902;-77
2021/04/08 09:22:58;;;;;;;6.13;2.60;;;;;;;;;;4953901;29;20418;-79
2021/04/08 09:25:29;;;;;;;3.70;2.53;;;;;;;;;;4953960;29;20511;-78
2021/04/08 09:28:15;;;;;;;4.63;3.00;;;;;;;;;;4953847;29;20456;-77
2021/04/08 09:30:48;;;;;;;4.07;3.33;;;;;;;;;;4953536;29;20548;-78
2021/04/08 09:33:14;;;;;;;2.83;2.23;;;;;;;;;;4953416;29;20416;-77
2021/04/08 09:35:40;;;;;;;3.40;2.60;;;;;;;;;;4953668;29;20891;-78
2021/04/08 09:38:06;;;;;;;4.75;3.08;;;;;;;;;;4954008;29;20491;-78
2021/04/08 09:40:43;;;;;;;3.90;2.93;;;;;;;;;;4953936;29;20594;-77
2021/04/08 09:43:09;;;;;;;2.90;2.63;;;;;;;;;;4936762;29;20470;-78
2021/04/08 09:45:37;;;;;;;4.83;2.67;;;;;;;;;;4953704;29;20575;-78
2021/04/08 09:48:09;;;;;;;2.60;2.40;;;;;;;;;;4953915;29;20513;-77
2021/04/08 09:50:42;;;;;;;3.00;2.70;;;;;;;;;;4953878;29;20613;-79
2021/04/08 09:53:09;;;;;;;3.13;2.55;;;;;;;;;;4953820;29;20178;-78
2021/04/08 09:55:35;;;;;;;7.15;3.08;;;;;;;;;;4953414;29;20665;-78
2021/04/08 09:58:02;;;;;;;7.47;2.85;;;;;;;;;;4953578;29;20179;-77
2021/04/08 10:00:28;;;;;;;3.55;2.75;;;;;;;;;;4953298;29;20174;-78
2021/04/08 10:02:58;;;;;;;3.30;3.00;;;;;;;;;;4952989;29;20182;-77
2021/04/08 10:05:29;;;;;;;5.90;3.10;;;;;;;;;;4953238;29;20175;-76
2021/04/08 10:07:56;;;;;;;3.20;2.25;;;;;;;;;;4953343;29;20319;-78
2021/04/08 10:10:25;;;;;;;2.45;1.70;;;;;;;;;;4953314;29;20179;-75
2021/04/08 10:12:51;;;;;;;7.40;2.30;;;;;;;;;;4953700;29;20182;-79
2021/04/08 10:15:18;;;;;;;4.88;2.75;;;;;;;;;;4953769;29;20171;-77
2021/04/08 10:17:44;;;;;;;2.85;2.60;;;;;;;;;;4953965;29;20524;-77
2021/04/08 10:20:10;;;;;;;5.78;2.70;;;;;;;;;;4954080;29;20179;-77
2021/04/08 10:22:41;;;;;;;5.80;2.43;;;;;;;;;;4960363;29;20179;-76
2021/04/08 10:25:07;;;;;;;2.60;2.40;;;;;;;;;;4960273;29;20407;-77
2021/04/08 10:27:33;;;;;;;2.90;2.60;;;;;;;;;;4953839;29;20419;-78
2021/04/08 10:29:59;;;;;;;3.40;2.67;;;;;;;;;;4954152;29;20526;-78
2021/04/08 10:32:33;;;;;;;4.60;3.13;;;;;;;;;;4953757;29;20297;-80
2021/04/08 10:34:59;;;;;;;4.43;2.43;;;;;;;;;;4953608;29;20524;-77
2021/04/08 10:37:25;;;;;;;6.68;3.30;;;;;;;;;;4953920;29;20948;-80
2021/04/08 10:39:51;;;;;;;5.40;3.05;;;;;;;;;;4953361;29;20179;-77
2021/04/08 10:42:17;;;;;;;5.97;3.60;;;;;;;;;;4936400;29;20183;-77
2021/04/08 10:44:44;;;;;;;8.05;3.75;;;;;;;;;;4953510;29;20956;-76
2021/04/08 10:53:19;;;;;;;6.53;3.10;;;;;;;;;;4953182;29;20418;-77
2021/04/08 10:55:46;;;;;;;3.77;2.90;;;;;;;;;;4953059;28;20514;-78
2021/04/08 10:58:22;;;;;;;4.80;2.93;;;;;;;;;;4936398;29;20431;-78
2021/04/08 11:00:48;;;;;;;5.10;2.40;;;;;;;;;;4936199;29;20467;-77
2021/04/08 11:03:15;;;;;;;3.73;3.37;;;;;;;;;;4953270;29;20494;-77
2021/04/08 11:05:41;;;;;;;3.23;2.60;;;;;;;;;;4953070;29;20901;-78
2021/04/08 11:08:08;;;;;;;4.93;3.00;;;;;;;;;;4952686;29;20412;-77
2021/04/08 11:10:34;;;;;;;3.60;3.30;;;;;;;;;;4953005;29;20506;-79
2021/04/08 11:13:00;;;;;;;6.13;3.20;;;;;;;;;;4952292;29;20495;-78
2021/04/08 11:15:28;;;;;;;10.77;3.10;;;;;;;;;;4934775;29;20463;-78
2021/04/08 11:17:55;;;;;;;4.40;3.00;;;;;;;;;;4952229;29;20611;-78
2021/04/08 11:20:44;;;;;;;4.00;2.90;;;;;;;;;;4952080;29;20439;-79
2021/04/08 11:23:11;;;;;;;5.50;3.13;;;;;;;;;;4944566;29;20459;-77
2021/04/08 11:25:38;;;;;;;4.33;2.83;;;;;;;;;;4952217;29;20450;-79
2021/04/08 11:28:05;;;;;;;2.70;2.23;;;;;;;;;;4952218;29;20404;-78
2021/04/08 11:30:34;;;;;;;4.40;2.90;;;;;;;;;;4952338;29;20463;-78
2021/04/08 11:33:00;;;;;;;2.33;2.13;;;;;;;;;;4950608;29;20952;-81
2021/04/08 11:35:36;;;;;;;7.50;2.90;;;;;;;;;;4951004;29;20536;-79
2021/04/08 11:38:06;;;;;;;4.53;2.57;;;;;;;;;;4952917;28;20418;-77
2021/04/08 11:40:32;;;;;;;3.17;2.07;;;;;;;;;;4954694;29;20492;-74
2021/04/08 11:42:58;;;;;;;3.50;2.60;;;;;;;;;;4955053;29;20407;-76
2021/04/08 11:45:28;;;;;;;2.70;2.50;;;;;;;;;;4954635;29;20834;-80
2021/04/08 11:48:02;;;;;;;4.10;2.60;;;;;;;;;;4956433;29;20452;-82
2021/04/08 11:50:35;;;;;;;5.93;2.97;;;;;;;;;;4954221;29;20460;-77
2021/04/08 11:53:04;;;;;;;2.67;2.47;;;;;;;;;;4954350;29;20416;-74
2021/04/08 11:55:42;;;;;;;5.23;2.40;;;;;;;;;;4954421;29;20798;-78
2021/04/08 11:58:09;;;;;;;3.23;2.27;;;;;;;;;;4954649;29;20457;-80
2021/04/08 12:00:36;;;;;;;4.13;2.43;;;;;;;;;;4954719;29;20844;-77
2021/04/08 12:03:19;;;;;;;4.00;2.40;;;;;;;;;;4954566;29;20487;-77
2021/04/08 12:05:45;;;;;;;4.13;2.90;;;;;;;;;;4954504;29;20535;-79
2021/04/08 12:08:11;;;;;;;4.73;2.47;;;;;;;;;;4954518;29;20407;-79
2021/04/08 12:13:21;;;;;;;3.63;2.20;;;;;;;;;;4879018;23;20930;-82
2021/04/08 12:15:47;;;;;;;2.93;2.03;;;;;;;;;;5021628;28;20620;-78
2021/04/08 12:18:21;;;;;;;3.27;2.00;;;;;;;;;;5027748;28;20613;-80
2021/04/08 12:20:48;;;;;;;6.70;3.23;;;;;;;;;;5026703;28;20542;-78
2021/04/08 12:23:16;;;;;;;4.77;3.30;;;;;;;;;;5030659;28;20451;-79
2021/04/08 12:25:46;;;;;;;2.90;2.60;;;;;;;;;;5028878;28;20467;-78
2021/04/08 12:28:12;;;;;;;4.40;2.80;;;;;;;;;;5029876;28;20545;-74
2021/04/08 12:30:46;;;;;;;2.40;2.20;;;;;;;;;;5029167;28;20605;-75
2021/04/08 12:33:15;;;;;;;3.13;2.37;;;;;;;;;;5032341;28;20546;-81
2021/04/08 12:35:43;;;;;;;2.63;2.43;;;;;;;;;;5033146;28;20556;-78
2021/04/08 12:38:09;;;;;;;8.40;3.10;;;;;;;;;;5009548;28;20791;-74
2021/04/08 12:40:35;;;;;;;4.87;2.70;;;;;;;;;;5031294;28;20451;-79
2021/04/08 12:43:01;;;;;;;6.10;2.73;;;;;;;;;;5027273;28;20462;-78
2021/04/08 12:45:27;;;;;;;3.67;2.40;;;;;;;;;;5030092;28;20443;-78
2021/04/08 12:47:53;;;;;;;3.13;2.03;;;;;;;;;;5029742;28;20473;-75
2021/04/08 12:50:19;;;;;;;3.00;2.20;;;;;;;;;;5029111;28;20470;-77
2021/04/08 12:52:45;;;;;;;2.10;1.90;;;;;;;;;;5029761;28;20468;-78
2021/04/08 12:55:11;;;;;;;2.77;2.40;;;;;;;;;;5014970;28;20447;-84
2021/04/08 12:57:38;;;;;;;2.20;2.00;;;;;;;;;;5031784;28;20440;-84
2021/04/08 13:00:05;;;;;;;3.50;2.37;;;;;;;;;;5029044;28;20446;-81
2021/04/08 13:02:31;;;;;;;2.40;2.13;;;;;;;;;;5029651;28;20472;-77
2021/04/08 13:04:57;;;;;;;4.23;3.20;;;;;;;;;;5029926;28;20471;-80
2021/04/08 13:07:24;;;;;;;2.70;2.47;;;;;;;;;;5012171;28;20448;-78
2021/04/08 13:09:50;;;;;;;3.40;2.23;;;;;;;;;;5012058;28;20451;-79
2021/04/08 13:12:17;;;;;;;2.43;2.23;;;;;;;;;;5025557;28;20931;-79
2021/04/08 13:14:43;;;;;;;4.57;2.53;;;;;;;;;;5028434;28;20569;-82
2021/04/08 13:17:09;;;;;;;3.40;2.20;;;;;;;;;;5028090;28;20462;-82
2021/04/08 13:19:35;;;;;;;2.37;2.17;;;;;;;;;;5030017;28;20451;-83
2021/04/08 13:22:01;;;;;;;4.17;2.20;;;;;;;;;;5032390;28;20526;-77
2021/04/08 13:24:28;;;;;;;2.77;2.50;;;;;;;;;;5032060;28;20469;-84
2021/04/08 13:26:54;;;;;;;5.00;2.70;;;;;;;;;;5030469;28;20432;-83
2021/04/08 13:29:20;;;;;;;7.03;2.63;;;;;;;;;;5029776;28;20465;-78
2021/04/08 13:31:46;;;;;;;4.30;2.23;;;;;;;;;;5028884;28;20573;-82
2021/04/08 13:34:12;;;;;;;3.27;2.60;;;;;;;;;;5027531;28;20517;-82
2021/04/08 13:36:38;;;;;;;4.67;2.50;;;;;;;;;;5031192;28;20456;-83
2021/04/08 13:39:05;;;;;;;2.47;2.27;;;;;;;;;;5028111;28;20448;-78
2021/04/08 13:41:31;;;;;;;6.23;3.33;;;;;;;;;;5032055;28;20530;-77
2021/04/08 13:43:57;;;;;;;4.20;3.53;;;;;;;;;;5037549;28;20543;-75
2021/04/08 13:46:23;;;;;;;3.20;2.90;;;;;;;;;;5016872;28;20445;-78
2021/04/08 13:48:48;;;;;;;3.60;2.70;;;;;;;;;;5030312;28;20435;-78
2021/04/08 13:51:14;;;;;;;6.53;2.90;;;;;;;;;;5030466;28;20521;-81
2021/04/08 13:53:40;;;;;;;5.77;2.67;;;;;;;;;;5029110;28;20455;-79
2021/04/08 13:56:06;;;;;;;2.83;2.63;;;;;;;;;;5028539;28;20798;-79
2021/04/08 13:58:32;;;;;;;4.60;2.93;;;;;;;;;;5029350;28;20475;-79
2021/04/08 14:00:58;;;;;;;3.07;2.50;;;;;;;;;;5028379;28;20454;-77
2021/04/08 14:03:24;;;;;;;3.60;2.47;;;;;;;;;;5028829;28;20454;-80
2021/04/08 14:05:50;;;;;;;4.40;2.80;;;;;;;;;;5028648;28;20464;-78
2021/04/08 14:08:16;;;;;;;3.53;2.80;;;;;;;;;;5028322;28;20429;-80
2021/04/08 14:10:42;;;;;;;3.77;2.53;;;;;;;;;;5029877;28;20839;-82
2021/04/08 14:13:08;;;;;;;3.33;2.90;;;;;;;;;;5028078;28;20496;-80
2021/04/08 14:15:35;;;;;;;2.93;2.63;;;;;;;;;;5029112;28;20436;-82
2021/04/08 14:18:01;;;;;;;5.17;3.00;;;;;;;;;;5029269;28;20469;-80
2021/04/08 14:20:27;;;;;;;4.10;3.10;;;;;;;;;;5029794;28;20426;-80
2021/04/08 14:22:53;;;;;;;3.70;2.80;;;;;;;;;;5031360;28;20759;-81
2021/04/08 14:25:20;;;;;;;4.40;2.73;;;;;;;;;;5012324;28;20452;-77
2021/04/08 14:27:46;;;;;;;3.80;3.13;;;;;;;;;;5033928;28;20485;-79
2021/04/08 14:30:12;;;;;;;3.90;2.90;;;;;;;;;;5029749;28;20438;-81
2021/04/08 14:32:38;;;;;;;4.63;3.53;;;;;;;;;;5030381;28;20578;-80
2021/04/08 14:35:08;;;;;;;4.00;2.80;;;;;;;;;;5030871;28;20523;-76
2021/04/08 14:37:34;;;;;;;6.30;3.87;;;;;;;;;;5004758;28;20786;-81
2021/04/08 14:40:01;;;;;;;4.87;2.80;;;;;;;;;;5031116;28;20444;-78
2021/04/08 14:42:27;;;;;;;4.23;3.13;;;;;;;;;;5030055;28;20449;-76
2021/04/08 14:44:53;;;;;;;3.50;3.20;;;;;;;;;;5013163;28;20435;-79
2021/04/08 14:47:19;;;;;;;3.13;2.83;;;;;;;;;;5031497;28;20449;-78
2021/04/08 14:49:45;;;;;;;3.07;2.60;;;;;;;;;;5033851;28;20488;-75
2021/04/08 14:52:11;;;;;;;3.77;3.20;;;;;;;;;;5030360;28;20975;-82
2021/04/08 14:54:37;;;;;;;5.70;3.30;;;;;;;;;;5032711;28;20794;-78
2021/04/08 14:57:03;;;;;;;3.67;3.00;;;;;;;;;;5031343;28;20438;-78
2021/04/08 14:59:29;;;;;;;4.00;3.30;;;;;;;;;;5029379;28;20444;-80
2021/04/08 15:01:55;;;;;;;4.70;2.90;;;;;;;;;;5032016;28;20441;-81
2021/04/08 15:04:21;;;;;;;3.27;2.90;;;;;;;;;;5028085;28;20543;-82
2021/04/08 15:06:47;;;;;;;5.00;3.20;;;;;;;;;;5030246;28;20452;-78
2021/04/08 15:09:13;;;;;;;4.50;3.67;;;;;;;;;;5030660;28;20932;-79
2021/04/08 15:11:39;;;;;;;4.30;3.90;;;;;;;;;;5032234;28;20478;-77
2021/04/08 15:14:05;;;;;;;4.10;2.77;;;;;;;;;;5034926;28;20486;-79
2021/04/08 15:16:31;;;;;;;3.17;2.87;;;;;;;;;;5036884;28;20442;-77
2021/04/08 15:18:57;;;;;;;4.07;3.30;;;;;;;;;;5041039;28;20437;-79
2021/04/08 15:21:23;;;;;;;3.20;2.90;;;;;;;;;;5024739;28;20443;-73
2021/04/08 15:23:49;;;;;;;5.00;3.40;;;;;;;;;;5035047;28;20520;-78
2021/04/08 15:26:15;;;;;;;6.53;3.33;;;;;;;;;;5035663;28;20534;-81
2021/04/08 15:28:41;;;;;;;4.90;4.30;;;;;;;;;;5035846;28;20814;-75
2021/04/08 15:31:07;;;;;;;9.57;3.13;;;;;;;;;;5035836;28;20469;-79
2021/04/08 15:33:33;;;;;;;3.70;3.40;;;;;;;;;;5035658;28;20419;-81
2021/04/08 15:35:59;;;;;;;5.33;3.90;;;;;;;;;;5036734;28;20450;-75
2021/04/08 15:38:25;;;;;;;6.80;3.10;;;;;;;;;;5043757;28;20412;-87
2021/04/08 15:40:51;;;;;;;4.20;3.30;;;;;;;;;;5036368;28;20483;-86
2021/04/08 15:43:17;;;;;;;3.10;2.53;;;;;;;;;;5036369;28;20494;-76
2021/04/08 15:48:47;;;;;;;5.57;3.70;;;;;;;;;;5035569;28;20510;-81
2021/04/08 15:51:13;;;;;;;4.73;3.60;;;;;;;;;;5036070;28;20540;-82
2021/04/08 15:53:40;;;;;;;4.53;3.23;;;;;;;;;;5036716;28;20414;-79
2021/04/08 15:56:06;;;;;;;3.23;2.90;;;;;;;;;;5006284;28;20450;-82
2021/04/08 15:58:32;;;;;;;3.07;2.87;;;;;;;;;;5038142;28;20777;-84
2021/04/08 16:04:02;;;;;;;5.40;3.10;;;;;;;;;;5037693;28;20416;-83
2021/04/08 16:06:28;;;;;;;5.13;3.20;;;;;;;;;;5019788;28;20449;-84
2021/04/08 16:08:56;;;;;;;5.37;3.10;;;;;;;;;;5037293;28;20874;-84